createdAt,value
2019-02-02T00:04:17.444Z,99399.92
2019-02-02T00:09:19.906Z,99393.55
2019-02-02T00:14:23.273Z,99397.23
2019-02-02T00:19:26.163Z,99386.97
2019-02-02T00:24:29.688Z,99382.13
2019-02-02T00:29:32.885Z,99380.50
2019-02-02T00:34:36.088Z,99383.91
2019-02-02T00:39:39.607Z,99389.19
2019-02-02T00:44:42.410Z,99383.60
2019-02-02T00:49:45.976Z,99391.67
2019-02-02T00:54:48.835Z,99399.87
2019-02-02T00:59:51.957Z,99412.94
2019-02-02T01:04:55.148Z,99407.46
2019-02-02T01:09:57.810Z,99418.57
2019-02-02T01:15:00.757Z,99414.47
2019-02-02T01:20:04.683Z,99418.03
2019-02-02T01:25:08.342Z,99424.73
2019-02-02T01:30:12.994Z,99416.47
2019-02-02T01:35:16.541Z,99420.19
2019-02-02T01:40:20.161Z,99414.45
2019-02-02T01:45:24.367Z,99411.08
2019-02-02T01:50:28.021Z,99405.55
2019-02-02T01:55:31.343Z,99408.61
2019-02-02T02:00:34.820Z,99403.91
2019-02-02T02:05:39.201Z,99403.42
2019-02-02T02:10:42.679Z,99404.35
2019-02-02T02:15:46.234Z,99412.95
2019-02-02T02:20:49.728Z,99404.41
2019-02-02T02:25:52.952Z,99415.50
2019-02-02T02:30:55.936Z,99414.98
2019-02-02T02:35:59.536Z,99426.20
2019-02-02T02:41:02.387Z,99432.62
2019-02-02T02:46:05.455Z,99441.02
2019-02-02T02:51:08.396Z,99438.91
2019-02-02T02:56:11.509Z,99425.25
2019-02-02T03:01:15.049Z,99426.69
2019-02-02T03:06:18.539Z,99414.08
2019-02-02T03:11:21.437Z,99414.03
2019-02-02T03:16:24.662Z,99415.02
2019-02-02T03:21:27.967Z,99419.23
2019-02-02T03:26:31.153Z,99418.55
2019-02-02T03:31:34.328Z,99406.28
2019-02-02T03:36:37.182Z,99411.58
2019-02-02T03:41:40.441Z,99404.35
2019-02-02T03:46:43.647Z,99414.47
2019-02-02T03:51:46.819Z,99425.55
2019-02-02T03:56:49.708Z,99417.48
2019-02-02T04:01:52.987Z,99420.45
2019-02-02T04:06:56.229Z,99415.81
2019-02-02T04:11:59.033Z,99425.73
2019-02-02T04:17:13.717Z,99429.66
2019-02-02T04:22:18.254Z,99435.28
2019-02-02T04:27:21.671Z,99438.02
2019-02-02T04:32:24.879Z,99443.39
2019-02-02T04:37:28.113Z,99435.27
2019-02-02T04:42:31.303Z,99442.83
2019-02-02T04:47:34.209Z,99437.05
2019-02-02T04:52:37.512Z,99436.49
2019-02-02T04:57:40.732Z,99439.05
2019-02-02T05:02:44.312Z,99442.16
2019-02-02T05:07:47.460Z,99446.99
2019-02-02T05:12:50.323Z,99455.53
2019-02-02T05:17:53.461Z,99450.50
2019-02-02T05:22:55.963Z,99452.86
2019-02-02T05:27:59.172Z,99442.30
2019-02-02T05:33:02.382Z,99444.98
2019-02-02T05:38:05.893Z,99440.16
2019-02-02T05:43:08.799Z,99446.84
2019-02-02T05:48:12.417Z,99446.54
2019-02-02T05:53:15.625Z,99436.59
2019-02-02T05:58:18.525Z,99444.98
2019-02-02T06:03:21.771Z,99436.39
2019-02-02T06:08:24.919Z,99433.36
2019-02-02T06:13:27.434Z,99438.64
2019-02-02T06:18:30.952Z,99431.25
2019-02-02T06:23:34.161Z,99448.97
2019-02-02T06:28:38.856Z,99459.02
2019-02-02T06:33:42.093Z,99468.98
2019-02-02T06:38:45.325Z,99473.89
2019-02-02T06:43:47.882Z,99490.77
2019-02-02T06:48:51.393Z,99491.63
2019-02-02T06:53:54.964Z,99491.20
2019-02-02T06:58:57.859Z,99502.02
2019-02-02T07:04:01.086Z,99503.65
2019-02-02T07:09:07.238Z,99514.40
2019-02-02T07:14:10.784Z,99514.95
2019-02-02T07:19:16.660Z,99518.44
2019-02-02T07:24:19.992Z,99525.05
2019-02-02T07:29:24.292Z,99532.70
2019-02-02T07:34:27.779Z,99520.18
2019-02-02T07:39:31.099Z,99518.94
2019-02-02T07:44:34.036Z,99542.20
2019-02-02T07:49:37.219Z,99544.20
2019-02-02T07:54:40.240Z,99533.08
2019-02-02T07:59:43.435Z,99548.88
2019-02-02T08:04:45.964Z,99577.44
2019-02-02T08:09:48.850Z,99572.84
2019-02-02T08:14:54.033Z,99566.56
2019-02-02T08:19:57.398Z,99571.53
2019-02-02T08:25:01.044Z,99569.43
2019-02-02T08:30:05.214Z,99578.87
2019-02-02T08:35:08.194Z,99580.98
2019-02-02T08:40:13.776Z,99591.57
2019-02-02T08:45:17.345Z,99609.38
2019-02-02T08:50:28.446Z,99592.02
2019-02-02T08:55:31.673Z,99594.61
2019-02-02T09:00:35.423Z,99599.42
2019-02-02T09:05:38.571Z,99598.03
2019-02-02T09:10:41.799Z,99598.97
2019-02-02T09:15:44.702Z,99619.11
2019-02-02T09:20:48.340Z,99619.83
2019-02-02T09:25:51.555Z,99622.47
2019-02-02T09:30:54.781Z,99626.38
2019-02-02T09:35:57.994Z,99625.51
2019-02-02T09:41:00.872Z,99631.49
2019-02-02T09:46:04.759Z,99649.28
2019-02-02T09:51:07.600Z,99643.05
2019-02-02T09:56:11.477Z,99649.42
2019-02-02T10:01:14.006Z,99660.39
2019-02-02T10:06:17.225Z,99667.41
2019-02-02T10:11:20.802Z,99674.34
2019-02-02T10:16:24.346Z,99678.80
2019-02-02T10:21:26.908Z,99684.16
2019-02-02T10:26:30.105Z,99683.91
2019-02-02T10:31:39.763Z,99678.02
2019-02-02T10:36:38.372Z,99675.83
2019-02-02T10:41:43.335Z,99680.27
2019-02-02T10:46:46.593Z,99684.95
2019-02-02T10:51:49.890Z,99683.45
2019-02-02T10:56:53.212Z,99685.50
2019-02-02T11:01:56.258Z,99691.70
2019-02-02T11:06:59.629Z,99690.00
2019-02-02T11:12:02.807Z,99689.38
2019-02-02T11:17:06.079Z,99682.52
2019-02-02T11:22:10.707Z,99681.34
2019-02-02T11:27:14.284Z,99676.92
2019-02-02T11:32:17.726Z,99687.34
2019-02-02T11:37:20.701Z,99675.68
2019-02-02T11:42:23.653Z,99667.58
2019-02-02T11:47:26.944Z,99676.06
2019-02-02T11:52:30.525Z,99673.56
2019-02-02T11:57:33.779Z,99670.69
2019-02-02T12:02:48.846Z,99670.54
2019-02-02T12:07:42.611Z,99663.70
2019-02-02T12:12:45.837Z,99661.86
2019-02-02T12:17:49.382Z,99677.00
2019-02-02T12:22:52.743Z,99677.38
2019-02-02T12:27:56.414Z,99680.42
2019-02-02T12:33:03.160Z,99675.89
2019-02-02T12:38:06.317Z,99678.08
2019-02-02T12:43:11.615Z,99685.55
2019-02-02T12:48:14.881Z,99658.94
2019-02-02T12:53:18.369Z,99683.75
2019-02-02T12:58:21.696Z,99679.42
2019-02-02T13:03:25.012Z,99690.53
2019-02-02T13:08:27.928Z,99692.41
2019-02-02T13:13:31.107Z,99700.58
2019-02-02T13:18:34.049Z,99693.52
2019-02-02T13:23:37.715Z,99699.95
2019-02-02T13:28:40.979Z,99698.81
2019-02-02T13:33:44.281Z,99701.37
2019-02-02T13:38:47.603Z,99707.42
2019-02-02T13:43:50.162Z,99710.85
2019-02-02T13:48:53.785Z,99712.52
2019-02-02T13:53:57.435Z,99730.58
2019-02-02T13:59:00.173Z,99720.06
2019-02-02T14:04:02.384Z,99725.66
2019-02-02T14:09:08.091Z,99736.64
2019-02-02T14:14:11.101Z,99741.87
2019-02-02T14:19:14.416Z,99749.53
2019-02-02T14:24:17.750Z,99749.42
2019-02-02T14:29:21.026Z,99754.58
2019-02-02T14:34:23.950Z,99762.38
2019-02-02T14:39:28.798Z,99757.83
2019-02-02T14:44:32.094Z,99767.59
2019-02-02T14:49:35.361Z,99771.85
2019-02-02T14:54:38.964Z,99777.77
2019-02-02T14:59:42.036Z,99786.98
2019-02-02T15:04:45.797Z,99803.24
2019-02-02T15:09:49.220Z,99810.78
2019-02-02T15:14:52.476Z,99815.83
2019-02-02T15:19:56.695Z,99810.63
2019-02-02T15:24:59.720Z,99809.28
2019-02-02T15:30:03.996Z,99819.84
2019-02-02T15:35:07.078Z,99826.52
2019-02-02T15:40:12.331Z,99835.24
2019-02-02T15:45:17.162Z,99834.00
2019-02-02T15:50:21.771Z,99838.88
2019-02-02T15:55:25.399Z,99848.63
2019-02-02T16:00:30.523Z,99846.33
2019-02-02T16:05:34.988Z,99861.50
2019-02-02T16:10:38.314Z,99864.86
2019-02-02T16:15:41.540Z,99874.34
2019-02-02T16:20:44.604Z,99881.18
2019-02-02T16:25:50.140Z,99879.52
2019-02-02T16:30:52.973Z,99885.03
2019-02-02T16:35:56.343Z,99891.71
2019-02-02T16:40:59.548Z,99890.47
2019-02-02T16:46:03.754Z,99901.48
2019-02-02T16:51:11.020Z,99897.89
2019-02-02T16:56:17.126Z,99896.11
2019-02-02T17:01:20.366Z,99903.77
2019-02-02T17:06:23.721Z,99910.17
2019-02-02T17:11:27.070Z,99913.80
2019-02-02T17:16:29.674Z,99916.96
2019-02-02T17:21:32.594Z,99928.51
2019-02-02T17:26:35.526Z,99946.52
2019-02-02T17:31:38.398Z,99937.49
2019-02-02T17:36:42.677Z,99949.36
2019-02-02T17:41:46.365Z,99945.66
2019-02-02T17:46:49.937Z,99949.91
2019-02-02T17:51:53.506Z,99954.33
2019-02-02T17:56:57.854Z,99952.52
2019-02-02T18:02:01.454Z,99950.18
2019-02-02T18:07:04.930Z,99962.75
2019-02-02T18:12:07.779Z,99963.43
2019-02-02T18:17:11.227Z,99973.99
2019-02-02T18:22:14.600Z,99969.02
2019-02-02T18:27:17.903Z,99973.91
2019-02-02T18:32:21.547Z,99980.59
2019-02-02T18:37:24.887Z,99982.33
2019-02-02T18:42:28.080Z,99990.50
2019-02-02T18:47:31.720Z,99987.71
2019-02-02T18:52:35.352Z,99993.94
2019-02-02T18:57:38.924Z,100002.80
2019-02-02T19:02:42.547Z,100008.24
2019-02-02T19:07:46.056Z,100022.22
2019-02-02T19:12:49.395Z,100027.03
2019-02-02T19:17:53.135Z,100046.23
2019-02-02T19:22:57.348Z,100056.14
2019-02-02T19:28:00.581Z,100067.58
2019-02-02T19:33:06.339Z,100072.38
2019-02-02T19:38:10.130Z,100080.99
2019-02-02T19:43:14.199Z,100089.64
2019-02-02T19:48:18.601Z,100090.74
2019-02-02T19:53:23.440Z,100094.62
2019-02-02T19:58:28.117Z,100105.91
2019-02-02T20:03:31.788Z,100117.59
2019-02-02T20:08:36.075Z,100122.37
2019-02-02T20:13:42.658Z,100128.11
2019-02-02T20:18:47.105Z,100139.81
2019-02-02T20:23:52.643Z,100140.30
2019-02-02T20:28:57.640Z,100143.46
2019-02-02T20:34:02.578Z,100148.64
2019-02-02T20:39:08.023Z,100160.59
2019-02-02T20:44:12.882Z,100161.34
2019-02-02T20:49:16.256Z,100164.05
2019-02-02T20:54:20.573Z,100150.55
2019-02-02T20:59:25.231Z,100168.83
2019-02-02T21:04:29.329Z,100183.68
2019-02-02T21:09:34.441Z,100180.62
2019-02-02T21:14:38.677Z,100187.98
2019-02-02T21:19:42.340Z,100204.33
2019-02-02T21:24:45.868Z,100210.56
2019-02-02T21:29:49.971Z,100217.00
2019-02-02T21:34:53.316Z,100219.19
2019-02-02T21:39:56.570Z,100239.08
2019-02-02T21:45:00.460Z,100233.74
2019-02-02T21:50:05.107Z,100248.65
2019-02-02T21:55:10.353Z,100262.21
2019-02-02T22:00:16.802Z,100270.25
2019-02-02T22:05:19.923Z,100276.62
2019-02-02T22:10:23.402Z,100283.92
2019-02-02T22:15:26.874Z,100304.56
2019-02-02T22:20:30.121Z,100298.31
2019-02-02T22:25:33.540Z,100302.89
2019-02-02T22:30:37.626Z,100316.16
2019-02-02T22:35:40.944Z,100316.89
2019-02-02T22:40:44.517Z,100324.00
2019-02-02T22:45:47.748Z,100333.11
2019-02-02T22:50:50.970Z,100342.13
2019-02-02T22:55:53.935Z,100355.98
2019-02-02T23:01:10.569Z,100368.48
2019-02-02T23:06:50.259Z,100369.17
2019-02-02T23:12:36.856Z,100375.70
2019-02-02T23:17:40.375Z,100377.39
2019-02-02T23:22:44.589Z,100392.75
2019-02-02T23:27:47.820Z,100403.42
2019-02-02T23:32:51.794Z,100407.30
2019-02-02T23:37:55.597Z,100420.84
2019-02-02T23:42:58.851Z,100422.62
2019-02-02T23:48:02.160Z,100435.31
2019-02-02T23:53:05.478Z,100443.97
2019-02-02T23:58:09.078Z,100446.38
